createdAt,value
2017-03-09T00:00:57.616Z,20.58
2017-03-09T00:02:06.406Z,20.62
2017-03-09T00:03:15.198Z,20.62
2017-03-09T00:04:23.997Z,20.62
2017-03-09T00:05:32.806Z,20.6
2017-03-09T00:06:41.640Z,20.62
2017-03-09T00:07:51.611Z,20.48
2017-03-09T00:09:00.785Z,20.59
2017-03-09T00:10:09.537Z,20.44
2017-03-09T00:11:18.720Z,20.47
2017-03-09T00:12:27.534Z,20.44
2017-03-09T00:13:37.059Z,20.44
2017-03-09T00:14:45.837Z,20.47
2017-03-09T00:15:55.416Z,20.48
2017-03-09T00:17:04.308Z,20.48
2017-03-09T00:18:13.493Z,20.5
2017-03-09T00:19:22.721Z,20.43
2017-03-09T00:20:31.947Z,20.43
2017-03-09T00:21:41.155Z,20.47
2017-03-09T00:22:50.352Z,20.41
2017-03-09T00:23:59.528Z,20.5
2017-03-09T00:25:08.713Z,20.44
2017-03-09T00:26:17.505Z,20.43
2017-03-09T00:27:27.042Z,20.41
2017-03-09T00:28:36.597Z,20.41
2017-03-09T00:29:45.786Z,20.37
2017-03-09T00:30:54.973Z,20.39
2017-03-09T00:32:04.515Z,20.44
2017-03-09T00:33:13.299Z,20.36
2017-03-09T00:34:22.066Z,20.41
2017-03-09T00:35:30.808Z,20.37
2017-03-09T00:36:39.936Z,20.4
2017-03-09T00:37:49.065Z,20.36
2017-03-09T00:38:58.605Z,20.37
2017-03-09T00:40:07.397Z,20.31
2017-03-09T00:41:16.561Z,20.29
2017-03-09T00:42:25.735Z,20.32
2017-03-09T00:43:34.915Z,20.26
2017-03-09T00:44:43.727Z,20.32
2017-03-09T00:45:52.523Z,20.29
2017-03-09T00:47:01.716Z,20.28
2017-03-09T00:48:10.513Z,20.32
2017-03-09T00:49:19.327Z,20.34
2017-03-09T00:50:28.899Z,20.28
2017-03-09T00:51:38.095Z,20.24
2017-03-09T00:52:46.888Z,20.25
2017-03-09T00:53:56.472Z,20.26
2017-03-09T00:55:06.449Z,20.31
2017-03-09T00:56:15.990Z,20.32
2017-03-09T00:57:24.750Z,20.26
2017-03-09T00:58:34.332Z,20.24
2017-03-09T00:59:43.909Z,20.29
2017-03-09T01:00:53.119Z,20.31
2017-03-09T01:02:02.290Z,20.21
2017-03-09T01:03:11.901Z,20.28
2017-03-09T01:04:21.087Z,20.25
2017-03-09T01:05:30.275Z,20.19
2017-03-09T01:06:39.876Z,20.21
2017-03-09T01:07:49.052Z,20.22
2017-03-09T01:08:57.870Z,20.22
2017-03-09T01:10:07.460Z,20.21
2017-03-09T01:11:16.951Z,20.24
2017-03-09T01:12:25.684Z,20.25
2017-03-09T01:13:34.847Z,20.14
2017-03-09T01:14:44.032Z,20.14
2017-03-09T01:15:53.551Z,20.14
2017-03-09T01:17:02.717Z,20.14
2017-03-09T01:18:11.522Z,20.13
2017-03-09T01:19:20.712Z,20.1
2017-03-09T01:20:29.474Z,20.07
2017-03-09T01:21:38.251Z,20.07
2017-03-09T01:22:47.069Z,20.14
2017-03-09T01:23:55.847Z,20.14
2017-03-09T01:25:05.004Z,20.14
2017-03-09T01:26:14.195Z,20.1
2017-03-09T01:27:22.995Z,20.21
2017-03-09T01:28:31.791Z,20.19
2017-03-09T01:29:40.576Z,20.21
2017-03-09T01:30:50.189Z,20.07
2017-03-09T01:31:59.002Z,20.11
2017-03-09T01:33:08.610Z,20.13
2017-03-09T01:34:17.807Z,20.06
2017-03-09T01:35:26.625Z,20.06
2017-03-09T01:36:35.431Z,20.02
2017-03-09T01:37:44.638Z,20.19
2017-03-09T01:38:53.450Z,20.04
2017-03-09T01:40:03.431Z,20.11
2017-03-09T01:41:12.629Z,20
2017-03-09T01:42:22.185Z,20.06
2017-03-09T01:43:31.012Z,20.02
2017-03-09T01:44:39.800Z,20.04
2017-03-09T01:45:48.986Z,20.03
2017-03-09T01:46:57.780Z,20.07
2017-03-09T01:48:06.962Z,19.99
2017-03-09T01:49:15.771Z,20.07
2017-03-09T01:50:24.937Z,19.96
2017-03-09T01:51:33.707Z,20
2017-03-09T01:52:42.532Z,20
2017-03-09T01:53:51.322Z,20.03
2017-03-09T01:55:00.860Z,20.06
2017-03-09T01:56:10.418Z,20.02
2017-03-09T01:57:19.609Z,20.06
2017-03-09T01:58:28.403Z,20.03
2017-03-09T01:59:37.207Z,20.02
2017-03-09T02:00:46.430Z,19.99
2017-03-09T02:01:55.615Z,19.99
2017-03-09T02:03:04.804Z,20.02
2017-03-09T02:04:13.992Z,20
2017-03-09T02:05:23.180Z,20
2017-03-09T02:06:32.055Z,20
2017-03-09T02:07:41.241Z,19.92
2017-03-09T02:08:50.428Z,19.99
2017-03-09T02:10:00.400Z,19.95
2017-03-09T02:11:09.619Z,19.96
2017-03-09T02:12:19.046Z,19.92
2017-03-09T02:13:28.233Z,19.95
2017-03-09T02:14:37.442Z,19.95
2017-03-09T02:15:47.012Z,19.92
2017-03-09T02:16:56.201Z,19.84
2017-03-09T02:18:05.005Z,19.89
2017-03-09T02:19:14.628Z,19.95
2017-03-09T02:20:23.815Z,19.88
2017-03-09T02:21:32.651Z,19.96
2017-03-09T02:22:41.484Z,19.77
2017-03-09T02:23:50.626Z,19.91
2017-03-09T02:24:59.390Z,19.88
2017-03-09T02:26:08.911Z,19.84
2017-03-09T02:27:17.684Z,19.84
2017-03-09T02:28:26.475Z,19.82
2017-03-09T02:29:35.287Z,19.85
2017-03-09T02:30:44.490Z,19.88
2017-03-09T02:31:54.065Z,19.85
2017-03-09T02:33:03.257Z,19.86
2017-03-09T02:34:13.199Z,19.86
2017-03-09T02:35:22.774Z,19.85
2017-03-09T02:36:31.592Z,19.82
2017-03-09T02:37:40.393Z,19.85
2017-03-09T02:38:49.565Z,19.86
2017-03-09T02:39:58.758Z,19.81
2017-03-09T02:41:07.906Z,19.82
2017-03-09T02:42:17.063Z,19.82
2017-03-09T02:43:26.793Z,19.77
2017-03-09T02:44:35.604Z,19.81
2017-03-09T02:45:44.427Z,19.81
2017-03-09T02:46:53.287Z,19.84
2017-03-09T02:48:02.474Z,19.79
2017-03-09T02:49:11.474Z,19.79
2017-03-09T02:50:21.438Z,19.77
2017-03-09T02:51:30.624Z,19.76
2017-03-09T02:52:39.411Z,19.79
2017-03-09T02:53:48.572Z,19.74
2017-03-09T02:54:57.591Z,19.77
2017-03-09T02:56:07.583Z,19.76
2017-03-09T02:57:16.384Z,19.74
2017-03-09T02:58:25.575Z,19.76
2017-03-09T02:59:34.755Z,19.84
2017-03-09T03:00:43.898Z,19.79
2017-03-09T03:01:52.665Z,19.74
2017-03-09T03:03:01.475Z,19.76
2017-03-09T03:04:10.266Z,19.73
2017-03-09T03:05:19.833Z,19.74
2017-03-09T03:06:29.006Z,19.7
2017-03-09T03:07:38.552Z,19.79
2017-03-09T03:08:47.757Z,19.73
2017-03-09T03:09:56.969Z,19.7
2017-03-09T03:11:06.148Z,19.73
2017-03-09T03:12:14.948Z,19.76
2017-03-09T03:13:23.750Z,19.77
2017-03-09T03:14:33.288Z,19.76
2017-03-09T03:15:43.212Z,19.67
2017-03-09T03:16:52.008Z,19.67
2017-03-09T03:18:00.780Z,19.73
2017-03-09T03:19:09.514Z,19.77
2017-03-09T03:20:18.304Z,19.69
2017-03-09T03:21:27.089Z,19.66
2017-03-09T03:22:36.225Z,19.66
2017-03-09T03:23:44.951Z,19.66
2017-03-09T03:24:54.099Z,19.64
2017-03-09T03:26:03.288Z,19.73
2017-03-09T03:27:12.500Z,19.62
2017-03-09T03:28:21.308Z,19.62
2017-03-09T03:29:30.073Z,19.69
2017-03-09T03:30:39.562Z,19.64
2017-03-09T03:31:48.729Z,19.67
2017-03-09T03:32:57.913Z,19.69
2017-03-09T03:34:07.109Z,19.58
2017-03-09T03:35:15.902Z,19.63
2017-03-09T03:36:25.092Z,19.58
2017-03-09T03:37:34.675Z,19.56
2017-03-09T03:38:43.492Z,19.66
2017-03-09T03:39:52.648Z,19.62
2017-03-09T03:41:01.431Z,19.56
2017-03-09T03:42:10.229Z,19.59
2017-03-09T03:43:19.820Z,19.66
2017-03-09T03:44:28.575Z,19.54
2017-03-09T03:45:37.353Z,19.66
2017-03-09T03:46:46.935Z,19.52
2017-03-09T03:47:56.538Z,19.59
2017-03-09T03:49:05.709Z,19.67
2017-03-09T03:50:14.859Z,19.63
2017-03-09T03:51:24.035Z,19.63
2017-03-09T03:52:32.842Z,19.54
2017-03-09T03:53:42.016Z,19.49
2017-03-09T03:54:51.167Z,19.63
2017-03-09T03:56:00.704Z,19.54
2017-03-09T03:57:09.903Z,19.62
2017-03-09T03:58:19.077Z,19.58
2017-03-09T03:59:28.228Z,19.54
2017-03-09T04:00:37.014Z,19.54
2017-03-09T04:01:45.820Z,19.62
2017-03-09T04:02:54.989Z,19.52
2017-03-09T04:04:04.232Z,19.51
2017-03-09T04:05:13.413Z,19.58
2017-03-09T04:06:22.211Z,19.59
2017-03-09T04:07:32.003Z,19.58
2017-03-09T04:08:41.199Z,19.52
2017-03-09T04:09:50.383Z,19.48
2017-03-09T04:10:59.228Z,19.52
2017-03-09T04:12:08.003Z,19.51
2017-03-09T04:13:17.184Z,19.48
2017-03-09T04:14:25.981Z,19.51
2017-03-09T04:15:34.825Z,19.58
2017-03-09T04:16:44.050Z,19.52
2017-03-09T04:17:53.622Z,19.52
2017-03-09T04:19:02.783Z,19.51
2017-03-09T04:20:11.931Z,19.47
2017-03-09T04:21:20.873Z,19.55
2017-03-09T04:22:29.645Z,19.47
2017-03-09T04:23:38.829Z,19.58
2017-03-09T04:24:48.007Z,19.47
2017-03-09T04:25:57.228Z,19.44
2017-03-09T04:27:06.790Z,19.45
2017-03-09T04:28:15.998Z,19.44
2017-03-09T04:29:24.814Z,19.48
2017-03-09T04:30:34.018Z,19.45
2017-03-09T04:31:43.252Z,19.44
2017-03-09T04:32:52.113Z,19.48
2017-03-09T04:34:00.943Z,19.37
2017-03-09T04:35:10.121Z,19.4
2017-03-09T04:36:18.971Z,19.37
2017-03-09T04:37:27.765Z,19.47
2017-03-09T04:38:36.529Z,19.36
2017-03-09T04:39:45.715Z,19.29
2017-03-09T04:40:54.912Z,19.37
2017-03-09T04:42:04.106Z,19.34
2017-03-09T04:43:13.343Z,19.33
2017-03-09T04:44:22.550Z,19.36
2017-03-09T04:45:31.780Z,19.37
2017-03-09T04:46:40.581Z,19.33
2017-03-09T04:47:49.776Z,19.34
2017-03-09T04:48:58.546Z,19.3
2017-03-09T04:50:07.288Z,19.34
2017-03-09T04:51:16.077Z,19.37
2017-03-09T04:52:24.889Z,19.37
2017-03-09T04:53:34.060Z,19.39
2017-03-09T04:54:42.859Z,19.34
2017-03-09T04:55:51.674Z,19.39
2017-03-09T04:57:00.816Z,19.36
2017-03-09T04:58:09.989Z,19.3
2017-03-09T04:59:19.338Z,19.44
2017-03-09T05:00:28.124Z,19.41
2017-03-09T05:01:37.321Z,19.34
2017-03-09T05:02:46.921Z,19.39
2017-03-09T05:03:56.159Z,19.44
2017-03-09T05:05:05.353Z,19.22
2017-03-09T05:06:14.494Z,19.24
2017-03-09T05:07:23.221Z,19.34
2017-03-09T05:08:32.370Z,19.34
2017-03-09T05:09:42.292Z,19.27
2017-03-09T05:10:51.124Z,19.27
2017-03-09T05:12:00.316Z,19.34
2017-03-09T05:13:09.880Z,19.26
2017-03-09T05:14:18.719Z,19.41
2017-03-09T05:15:27.546Z,19.29
2017-03-09T05:16:37.494Z,19.24
2017-03-09T05:17:46.282Z,19.36
2017-03-09T05:18:55.469Z,19.34
2017-03-09T05:20:04.696Z,19.34
2017-03-09T05:21:14.697Z,19.36
2017-03-09T05:22:23.876Z,19.34
2017-03-09T05:23:33.070Z,19.36
2017-03-09T05:24:42.238Z,19.33
2017-03-09T05:25:51.018Z,19.33
2017-03-09T05:27:00.590Z,19.39
2017-03-09T05:28:10.560Z,19.33
2017-03-09T05:29:20.140Z,19.39
2017-03-09T05:30:29.313Z,19.45
2017-03-09T05:31:38.159Z,19.48
2017-03-09T05:32:47.761Z,19.49
2017-03-09T05:33:56.563Z,19.44
2017-03-09T05:35:05.389Z,19.44
2017-03-09T05:36:14.607Z,19.47
2017-03-09T05:37:23.444Z,19.52
2017-03-09T05:38:32.252Z,19.55
2017-03-09T05:39:41.432Z,19.48
2017-03-09T05:40:51.017Z,19.51
2017-03-09T05:41:59.827Z,19.51
2017-03-09T05:43:08.841Z,19.47
2017-03-09T05:44:18.045Z,19.51
2017-03-09T05:45:26.881Z,19.58
2017-03-09T05:46:35.696Z,19.55
2017-03-09T05:47:44.898Z,19.56
2017-03-09T05:48:54.092Z,19.62
2017-03-09T05:50:03.286Z,19.58
2017-03-09T05:51:12.126Z,19.56
2017-03-09T05:52:22.063Z,19.62
2017-03-09T05:53:30.841Z,19.58
2017-03-09T05:54:39.634Z,19.64
2017-03-09T05:55:49.216Z,19.59
2017-03-09T05:56:58.812Z,19.66
2017-03-09T05:58:07.989Z,19.63
2017-03-09T05:59:17.101Z,19.66
2017-03-09T06:00:25.929Z,19.66
2017-03-09T06:01:35.086Z,19.7
2017-03-09T06:02:44.238Z,19.71
2017-03-09T06:03:53.058Z,19.67
2017-03-09T06:05:01.881Z,19.71
2017-03-09T06:06:10.681Z,19.77
2017-03-09T06:07:20.290Z,19.77
2017-03-09T06:08:29.055Z,19.74
2017-03-09T06:09:38.227Z,19.76
2017-03-09T06:10:47.015Z,19.76
2017-03-09T06:11:56.184Z,19.81
2017-03-09T06:13:06.147Z,19.74
2017-03-09T06:14:15.011Z,19.88
2017-03-09T06:15:23.799Z,19.82
2017-03-09T06:16:32.998Z,19.81
2017-03-09T06:17:42.186Z,19.86
2017-03-09T06:18:51.387Z,19.84
2017-03-09T06:20:00.601Z,19.85
2017-03-09T06:21:09.374Z,19.89
2017-03-09T06:22:18.549Z,19.84
2017-03-09T06:23:27.764Z,19.94
2017-03-09T06:24:36.599Z,19.95
2017-03-09T06:25:45.751Z,20
2017-03-09T06:26:54.928Z,20.02
2017-03-09T06:28:04.152Z,20.06
2017-03-09T06:29:13.729Z,20.04
2017-03-09T06:30:22.527Z,19.95
2017-03-09T06:31:31.347Z,20.07
2017-03-09T06:32:40.149Z,20.02
2017-03-09T06:33:48.954Z,20.02
2017-03-09T06:34:58.137Z,20.11
2017-03-09T06:36:06.957Z,20.19
2017-03-09T06:37:16.145Z,20.04
2017-03-09T06:38:24.961Z,20.07
2017-03-09T06:39:33.764Z,20.07
2017-03-09T06:40:43.347Z,20.13
2017-03-09T06:41:52.150Z,20.11
2017-03-09T06:43:00.971Z,20.07
2017-03-09T06:44:09.767Z,20.14
2017-03-09T06:45:18.528Z,20.14
2017-03-09T06:46:28.467Z,20.14
2017-03-09T06:47:37.657Z,20.24
2017-03-09T06:48:46.483Z,20.22
2017-03-09T06:49:55.674Z,20.22
2017-03-09T06:51:04.891Z,20.26
2017-03-09T06:52:13.708Z,20.36
2017-03-09T06:53:22.856Z,20.26
2017-03-09T06:54:31.635Z,20.31
2017-03-09T06:55:40.465Z,20.25
2017-03-09T06:56:49.670Z,20.31
2017-03-09T06:57:58.865Z,20.34
2017-03-09T06:59:07.671Z,20.31
2017-03-09T07:00:16.481Z,20.34
2017-03-09T07:01:25.675Z,20.36
2017-03-09T07:02:34.512Z,20.34
2017-03-09T07:03:43.326Z,20.37
2017-03-09T07:04:52.906Z,20.4
2017-03-09T07:06:02.083Z,20.44
2017-03-09T07:07:11.280Z,20.47
2017-03-09T07:08:20.104Z,20.48
2017-03-09T07:09:29.256Z,20.44
2017-03-09T07:10:38.026Z,20.47
2017-03-09T07:11:47.993Z,20.48
2017-03-09T07:12:56.799Z,20.48
2017-03-09T07:14:05.982Z,20.48
2017-03-09T07:15:14.800Z,20.47
2017-03-09T07:16:24.363Z,20.58
2017-03-09T07:17:33.945Z,20.65
2017-03-09T07:18:43.128Z,20.55
2017-03-09T07:19:51.942Z,20.51
2017-03-09T07:21:00.774Z,20.67
2017-03-09T07:22:09.927Z,20.62
2017-03-09T07:23:18.659Z,20.58
2017-03-09T07:24:28.204Z,20.69
2017-03-09T07:25:37.021Z,20.63
2017-03-09T07:26:47.187Z,20.69
2017-03-09T07:27:56.797Z,20.69
2017-03-09T07:29:05.589Z,20.7
2017-03-09T07:30:14.398Z,20.69
2017-03-09T07:31:23.623Z,20.72
2017-03-09T07:32:33.203Z,20.74
2017-03-09T07:33:41.952Z,20.7
2017-03-09T07:34:51.508Z,20.7
2017-03-09T07:36:01.085Z,20.74
2017-03-09T07:37:10.307Z,20.69
2017-03-09T07:38:19.503Z,20.75
2017-03-09T07:39:28.330Z,20.78
2017-03-09T07:40:37.109Z,20.81
2017-03-09T07:41:46.694Z,20.75
2017-03-09T07:42:55.481Z,20.87
2017-03-09T07:44:04.627Z,20.84
2017-03-09T07:45:13.802Z,20.81
2017-03-09T07:46:23.344Z,20.75
2017-03-09T07:47:32.115Z,20.84
2017-03-09T07:48:40.932Z,20.9
2017-03-09T07:49:50.129Z,20.87
2017-03-09T07:51:00.124Z,20.85
2017-03-09T07:52:09.278Z,20.81
2017-03-09T07:53:18.825Z,20.93
2017-03-09T07:54:28.787Z,20.92
2017-03-09T07:55:37.949Z,20.9
2017-03-09T07:56:47.160Z,20.9
2017-03-09T07:57:56.374Z,20.88
2017-03-09T07:59:05.560Z,21.03
2017-03-09T08:00:14.342Z,20.99
2017-03-09T08:01:23.489Z,20.97
2017-03-09T08:02:32.670Z,21.05
2017-03-09T08:03:41.444Z,21.07
2017-03-09T08:04:50.272Z,21.07
2017-03-09T08:05:59.467Z,21.06
2017-03-09T08:07:08.675Z,21.06
2017-03-09T08:08:17.858Z,21.07
2017-03-09T08:09:27.085Z,21.11
2017-03-09T08:10:36.277Z,21.11
2017-03-09T08:11:45.068Z,21.07
2017-03-09T08:12:53.877Z,21.12
2017-03-09T08:14:03.072Z,21.18
2017-03-09T08:15:12.282Z,21.18
2017-03-09T08:16:21.687Z,21.2
2017-03-09T08:17:30.904Z,21.21
2017-03-09T08:18:39.709Z,21.22
2017-03-09T08:19:48.556Z,21.2
2017-03-09T08:20:57.360Z,21.2
2017-03-09T08:22:06.533Z,21.21
2017-03-09T08:23:15.723Z,21.18
2017-03-09T08:24:24.885Z,21.21
2017-03-09T08:25:33.729Z,21.29
2017-03-09T08:26:42.909Z,21.17
2017-03-09T08:27:52.062Z,21.17
2017-03-09T08:29:00.900Z,21.21
2017-03-09T08:30:09.729Z,21.17
2017-03-09T08:31:18.503Z,21.22
2017-03-09T08:32:27.661Z,21.2
2017-03-09T08:33:37.598Z,21.22
2017-03-09T08:34:46.757Z,21.21
2017-03-09T08:35:55.923Z,21.2
2017-03-09T08:37:04.700Z,21.2
2017-03-09T08:40:31.015Z,21.25
2017-03-09T08:41:39.776Z,21.21
2017-03-09T08:42:48.930Z,21.21
2017-03-09T08:43:57.722Z,21.2
2017-03-09T08:45:06.934Z,21.22
2017-03-09T08:47:24.191Z,21.24
2017-03-09T08:48:33.336Z,21.25
2017-03-09T08:49:43.260Z,21.22
2017-03-09T08:50:52.455Z,21.21
2017-03-09T08:52:01.993Z,21.24
2017-03-09T08:53:10.786Z,21.21
2017-03-09T08:54:20.359Z,21.22
2017-03-09T08:55:29.533Z,21.27
2017-03-09T08:56:38.308Z,21.24
2017-03-09T08:57:47.534Z,21.25
2017-03-09T08:58:56.547Z,21.22
2017-03-09T09:00:05.365Z,21.2
2017-03-09T09:01:14.163Z,21.29
2017-03-09T09:02:23.744Z,21.25
2017-03-09T09:03:33.327Z,21.37
2017-03-09T09:04:42.568Z,21.3
2017-03-09T09:05:52.549Z,21.29
2017-03-09T09:07:01.353Z,21.33
2017-03-09T09:08:10.469Z,21.27
2017-03-09T09:09:19.923Z,21.3
2017-03-09T09:10:29.140Z,21.35
2017-03-09T09:11:37.958Z,21.3
2017-03-09T09:12:46.767Z,21.32
2017-03-09T09:13:55.984Z,21.32
2017-03-09T09:15:04.754Z,21.32
2017-03-09T09:16:13.553Z,21.29
2017-03-09T09:17:22.744Z,21.3
2017-03-09T09:18:31.558Z,21.35
2017-03-09T09:19:40.743Z,21.37
2017-03-09T09:20:49.563Z,21.35
2017-03-09T09:21:58.350Z,21.37
2017-03-09T09:23:07.171Z,21.29
2017-03-09T09:24:16.012Z,21.3
2017-03-09T09:25:24.851Z,21.36
2017-03-09T09:26:33.662Z,21.37
2017-03-09T09:27:43.230Z,21.33
2017-03-09T09:28:52.424Z,21.36
2017-03-09T09:30:02.662Z,21.35
2017-03-09T09:31:11.880Z,21.35
2017-03-09T09:32:20.666Z,21.32
2017-03-09T09:33:29.468Z,21.33
2017-03-09T09:34:38.624Z,21.39
2017-03-09T09:35:47.742Z,21.36
2017-03-09T09:36:57.306Z,21.36
2017-03-09T09:38:06.494Z,21.29
2017-03-09T09:39:15.688Z,21.36
2017-03-09T09:40:24.913Z,21.4
2017-03-09T09:41:34.133Z,21.36
2017-03-09T09:42:43.723Z,21.33
2017-03-09T09:43:52.517Z,21.4
2017-03-09T09:45:01.707Z,21.4
2017-03-09T09:46:10.887Z,21.35
2017-03-09T09:47:20.041Z,21.36
2017-03-09T09:48:30.007Z,21.4
2017-03-09T09:49:39.188Z,21.43
2017-03-09T09:50:48.368Z,21.36
2017-03-09T09:51:57.564Z,21.39
2017-03-09T09:54:16.524Z,21.51
2017-03-09T09:55:25.333Z,21.52
2017-03-09T09:56:35.340Z,21.37
2017-03-09T09:57:44.182Z,21.42
2017-03-09T09:58:52.974Z,21.48
2017-03-09T10:00:02.178Z,21.48
2017-03-09T10:01:10.989Z,21.5
2017-03-09T10:02:20.147Z,21.45
2017-03-09T10:03:28.929Z,21.5
2017-03-09T10:04:37.749Z,21.57
2017-03-09T10:05:47.349Z,21.5
2017-03-09T10:06:56.174Z,21.52
2017-03-09T10:08:05.705Z,21.54
2017-03-09T10:09:14.498Z,21.57
2017-03-09T10:10:23.778Z,21.62
2017-03-09T10:11:32.613Z,21.58
2017-03-09T10:12:41.798Z,21.61
2017-03-09T10:13:51.378Z,21.61
2017-03-09T10:15:00.178Z,21.6
2017-03-09T10:16:08.999Z,21.64
2017-03-09T10:17:17.803Z,21.66
2017-03-09T10:18:26.571Z,21.67
2017-03-09T10:19:35.767Z,21.72
2017-03-09T10:20:44.602Z,21.72
2017-03-09T10:21:53.788Z,21.79
2017-03-09T10:23:02.633Z,21.72
2017-03-09T10:24:11.392Z,21.67
2017-03-09T10:25:20.942Z,21.73
2017-03-09T10:26:29.764Z,21.7
2017-03-09T10:27:38.972Z,21.79
2017-03-09T10:28:47.804Z,21.7
2017-03-09T10:29:57.008Z,21.7
2017-03-09T10:31:06.170Z,21.79
2017-03-09T10:32:15.333Z,21.72
2017-03-09T10:33:24.473Z,21.76
2017-03-09T10:34:34.396Z,21.73
2017-03-09T10:35:43.961Z,21.7
2017-03-09T10:36:52.738Z,21.8
2017-03-09T10:38:01.531Z,21.88
2017-03-09T10:39:10.722Z,21.79
2017-03-09T10:40:20.276Z,21.83
2017-03-09T10:41:29.803Z,21.75
2017-03-09T10:42:38.965Z,21.83
2017-03-09T10:43:48.180Z,21.89
2017-03-09T10:44:57.759Z,21.82
2017-03-09T10:46:06.978Z,21.91
2017-03-09T10:47:16.183Z,21.83
2017-03-09T10:48:25.372Z,21.88
2017-03-09T10:49:34.203Z,21.88
2017-03-09T10:50:43.407Z,21.82
2017-03-09T10:51:52.211Z,21.91
2017-03-09T10:53:01.826Z,21.92
2017-03-09T10:54:10.651Z,21.91
2017-03-09T10:55:19.859Z,21.89
2017-03-09T10:56:29.068Z,21.95
2017-03-09T10:57:38.626Z,21.85
2017-03-09T10:58:47.413Z,21.92
2017-03-09T10:59:57.388Z,21.95
2017-03-09T11:01:06.559Z,21.95
2017-03-09T11:02:15.336Z,21.92
2017-03-09T11:03:24.941Z,21.95
2017-03-09T11:04:33.735Z,21.96
2017-03-09T11:05:43.307Z,21.91
2017-03-09T11:06:52.484Z,21.91
2017-03-09T11:08:01.256Z,21.99
2017-03-09T11:09:10.841Z,21.89
2017-03-09T11:10:20.450Z,21.93
2017-03-09T11:11:29.276Z,21.95
2017-03-09T11:12:39.235Z,21.89
2017-03-09T11:13:48.404Z,21.83
2017-03-09T11:14:57.959Z,21.89
2017-03-09T11:16:07.155Z,21.93
2017-03-09T11:17:16.733Z,21.95
2017-03-09T11:18:26.174Z,21.89
2017-03-09T11:19:35.357Z,21.95
2017-03-09T11:20:44.563Z,21.89
2017-03-09T11:21:53.752Z,21.95
2017-03-09T11:23:02.511Z,21.95
2017-03-09T11:24:12.825Z,21.95
2017-03-09T11:25:21.665Z,21.89
2017-03-09T11:26:30.869Z,21.89
2017-03-09T11:27:39.662Z,21.88
2017-03-09T11:28:49.170Z,21.92
2017-03-09T11:29:57.944Z,21.89
2017-03-09T11:31:06.758Z,21.83
2017-03-09T11:32:15.955Z,21.91
2017-03-09T11:33:25.159Z,21.95
2017-03-09T11:34:34.750Z,21.93
2017-03-09T11:35:43.947Z,21.98
2017-03-09T11:36:53.160Z,21.92
2017-03-09T11:38:02.771Z,21.95
2017-03-09T11:39:11.602Z,21.88
2017-03-09T11:40:20.956Z,21.89
2017-03-09T11:41:29.746Z,21.92
2017-03-09T11:42:39.291Z,21.83
2017-03-09T11:43:48.852Z,21.89
2017-03-09T11:44:57.683Z,21.92
2017-03-09T11:46:06.887Z,21.96
2017-03-09T11:47:15.691Z,21.88
2017-03-09T11:48:24.501Z,21.95
2017-03-09T11:49:33.679Z,21.89
2017-03-09T11:50:42.856Z,21.92
2017-03-09T11:51:52.070Z,21.88
2017-03-09T11:53:01.614Z,21.88
2017-03-09T11:54:10.773Z,21.88
2017-03-09T11:55:19.576Z,21.91
2017-03-09T11:56:28.780Z,21.89
2017-03-09T11:57:38.350Z,21.82
2017-03-09T11:58:47.164Z,21.88
2017-03-09T11:59:55.975Z,21.88
2017-03-09T12:01:05.511Z,21.89
2017-03-09T12:02:14.675Z,21.93
2017-03-09T12:03:24.263Z,21.91
2017-03-09T12:04:33.807Z,21.91
2017-03-09T12:05:43.751Z,21.88
2017-03-09T12:06:52.546Z,21.88
2017-03-09T12:08:02.118Z,21.95
2017-03-09T12:09:10.886Z,21.93
2017-03-09T12:10:20.046Z,21.91
2017-03-09T12:11:28.848Z,21.95
2017-03-09T12:12:38.011Z,21.88
2017-03-09T12:13:47.613Z,21.83
2017-03-09T12:14:57.158Z,21.88
2017-03-09T12:16:06.715Z,21.91
2017-03-09T12:17:15.519Z,21.85
2017-03-09T12:18:25.142Z,21.92
2017-03-09T12:19:34.329Z,21.95
2017-03-09T12:20:43.560Z,21.88
2017-03-09T12:21:52.380Z,21.88
2017-03-09T12:23:01.222Z,21.83
2017-03-09T12:24:10.021Z,21.88
2017-03-09T12:25:19.664Z,21.8
2017-03-09T12:26:29.630Z,21.91
2017-03-09T12:27:38.451Z,21.89
2017-03-09T12:28:47.273Z,21.91
2017-03-09T12:29:56.852Z,21.95
2017-03-09T12:31:06.069Z,21.89
2017-03-09T12:32:14.867Z,21.92
2017-03-09T12:33:23.641Z,21.93
2017-03-09T12:34:32.443Z,21.93
2017-03-09T12:35:41.265Z,21.89
2017-03-09T12:36:50.851Z,21.92
2017-03-09T12:37:59.661Z,21.98
2017-03-09T12:39:08.909Z,21.88
2017-03-09T12:40:18.504Z,21.96
2017-03-09T12:41:27.328Z,21.85
2017-03-09T12:42:36.105Z,21.91
2017-03-09T12:43:45.328Z,21.91
2017-03-09T12:44:54.479Z,21.89
2017-03-09T12:46:03.631Z,21.95
2017-03-09T12:47:13.226Z,21.95
2017-03-09T12:48:22.141Z,21.95
2017-03-09T12:49:31.356Z,21.99
2017-03-09T12:50:40.174Z,21.99
2017-03-09T12:51:49.373Z,22.04
2017-03-09T12:52:58.908Z,21.98
2017-03-09T12:54:08.491Z,21.99
2017-03-09T12:55:17.672Z,22
2017-03-09T12:56:26.723Z,21.98
2017-03-09T12:57:35.570Z,21.98
2017-03-09T12:58:44.402Z,21.95
2017-03-09T12:59:53.208Z,21.98
2017-03-09T13:01:02.385Z,21.96
2017-03-09T13:02:11.958Z,21.99
2017-03-09T13:03:20.741Z,21.93
2017-03-09T13:04:29.917Z,21.89
2017-03-09T13:05:38.699Z,21.96
2017-03-09T13:06:47.501Z,21.98
2017-03-09T13:07:56.311Z,21.95
2017-03-09T13:09:05.106Z,21.96
2017-03-09T13:10:14.679Z,21.99
2017-03-09T13:11:23.914Z,21.98
2017-03-09T13:12:32.722Z,21.95
2017-03-09T13:13:42.281Z,21.98
2017-03-09T13:14:55.580Z,21.99
2017-03-09T13:16:05.158Z,21.99
2017-03-09T13:17:14.378Z,22
2017-03-09T13:18:23.187Z,21.99
2017-03-09T13:19:32.039Z,22.02
2017-03-09T13:20:40.876Z,22.02
2017-03-09T13:21:49.728Z,21.92
2017-03-09T13:22:59.334Z,22.06
2017-03-09T13:24:08.871Z,22.07
2017-03-09T13:25:18.053Z,22.08
2017-03-09T13:26:27.384Z,22.04
2017-03-09T13:27:36.199Z,22.18
2017-03-09T13:28:45.010Z,22.11
2017-03-09T13:29:54.205Z,22.17
2017-03-09T13:31:03.026Z,22.18
2017-03-09T13:32:12.552Z,22.1
2017-03-09T13:33:21.717Z,22.17
2017-03-09T13:34:30.484Z,22.23
2017-03-09T13:35:39.607Z,22.2
2017-03-09T13:36:48.806Z,22.23
2017-03-09T13:37:58.015Z,22.14
2017-03-09T13:39:07.179Z,22.25
2017-03-09T13:40:16.359Z,22.18
2017-03-09T13:41:25.511Z,22.14
2017-03-09T13:42:34.715Z,22.15
2017-03-09T13:43:43.549Z,22.25
2017-03-09T13:44:52.324Z,22.14
2017-03-09T13:46:01.765Z,22.14
2017-03-09T13:47:10.590Z,22.17
2017-03-09T13:48:19.408Z,22.14
2017-03-09T13:49:28.248Z,22.17
2017-03-09T13:50:37.013Z,22.1
2017-03-09T13:51:46.221Z,22.07
2017-03-09T13:52:55.444Z,22.15
2017-03-09T13:54:04.631Z,22.11
2017-03-09T13:55:13.447Z,22.08
2017-03-09T13:56:22.658Z,22.1
2017-03-09T13:57:31.871Z,22.06
2017-03-09T13:58:40.701Z,22.06
2017-03-09T13:59:49.527Z,22.1
2017-03-09T14:00:58.333Z,22.1
2017-03-09T14:02:07.541Z,22.1
2017-03-09T14:03:16.344Z,22.08
2017-03-09T14:04:25.535Z,22.13
2017-03-09T14:05:34.331Z,22.08
2017-03-09T14:06:43.576Z,22.06
2017-03-09T14:07:52.403Z,22.07
2017-03-09T14:09:02.004Z,22.13
2017-03-09T14:10:10.838Z,22.14
2017-03-09T14:11:19.627Z,22.18
2017-03-09T14:12:28.417Z,22.08
2017-03-09T14:13:37.627Z,22.2
2017-03-09T14:14:46.378Z,22.17
2017-03-09T14:15:55.189Z,22.11
2017-03-09T14:17:03.990Z,22.15
2017-03-09T14:18:13.178Z,22.1
2017-03-09T14:19:22.399Z,22.06
2017-03-09T14:20:31.594Z,22.18
2017-03-09T14:21:40.431Z,22.15
2017-03-09T14:22:50.055Z,22.13
2017-03-09T14:23:59.262Z,22.13
2017-03-09T14:25:08.450Z,22.11
2017-03-09T14:26:17.295Z,22.15
2017-03-09T14:27:26.485Z,22.18
2017-03-09T14:28:35.270Z,22.15
2017-03-09T14:29:44.440Z,22.18
2017-03-09T14:30:54.059Z,22.08
2017-03-09T14:32:02.864Z,22.15
2017-03-09T14:33:11.670Z,22.15
2017-03-09T14:34:20.498Z,22.11
2017-03-09T14:35:29.694Z,22.11
2017-03-09T14:36:38.504Z,22.04
2017-03-09T14:37:47.704Z,22.14
2017-03-09T14:38:56.498Z,22.13
2017-03-09T14:40:05.305Z,22.13
2017-03-09T14:41:14.531Z,22.11
2017-03-09T14:42:23.727Z,22.13
2017-03-09T14:43:32.536Z,22.15
2017-03-09T14:44:41.352Z,22.11
2017-03-09T14:45:50.163Z,22.08
2017-03-09T14:46:59.361Z,22.11
2017-03-09T14:48:08.948Z,22.13
2017-03-09T14:49:17.774Z,22.13
2017-03-09T14:50:26.917Z,22.2
2017-03-09T14:51:35.706Z,22.26
2017-03-09T14:52:44.511Z,22.17
2017-03-09T14:53:53.328Z,22.26
2017-03-09T14:55:02.155Z,22.28
2017-03-09T14:56:11.327Z,22.26
2017-03-09T14:57:20.880Z,22.33
2017-03-09T14:58:30.074Z,22.26